Time;durP1;ratioP1;P1;durP2;ratioP2;P2;SDS_P1;SDS_P2;PMS_P1;PMS_P2;Temp;Humidity;BMP_temperature;BMP_pressure;BME280_temperature;BME280_humidity;BME280_pressure;Samples;Min_cycle;Max_cycle;Signal;HPM_P1;HPM_P2
2022/11/01 00:01:22;;;;;;;16.17;5.07;;;;;;;;;;4995218;28;20031;-47
2022/11/01 00:03:47;;;;;;;16.77;5.65;;;;;;;;;;4999650;28;20038;-48
2022/11/01 00:06:13;;;;;;;16.60;5.60;;;;;;;;;;4997237;28;20030;-49
2022/11/01 00:08:38;;;;;;;19.17;5.68;;;;;;;;;;4997276;28;20034;-51
2022/11/01 00:11:05;;;;;;;21.40;5.90;;;;;;;;;;4997571;28;20053;-50
2022/11/01 00:13:31;;;;;;;16.95;4.88;;;;;;;;;;4997996;28;20038;-48
2022/11/01 00:15:57;;;;;;;27.38;5.60;;;;;;;;;;4995209;28;20029;-50
2022/11/01 00:18:22;;;;;;;21.42;6.40;;;;;;;;;;4996940;28;20035;-50
2022/11/01 00:20:48;;;;;;;19.83;6.25;;;;;;;;;;4996403;28;20046;-48
2022/11/01 00:23:13;;;;;;;25.20;5.43;;;;;;;;;;4995618;28;20045;-47
2022/11/01 00:25:39;;;;;;;14.32;5.38;;;;;;;;;;4995369;28;20508;-48
2022/11/01 00:28:04;;;;;;;24.20;5.53;;;;;;;;;;4995292;28;20046;-47
2022/11/01 00:30:29;;;;;;;17.13;5.05;;;;;;;;;;4996140;28;20030;-47
2022/11/01 00:32:58;;;;;;;18.73;5.82;;;;;;;;;;4994351;28;20046;-49
2022/11/01 00:35:23;;;;;;;14.85;4.80;;;;;;;;;;4994031;28;20118;-49
2022/11/01 00:37:49;;;;;;;14.15;5.30;;;;;;;;;;4994149;28;20402;-47
2022/11/01 00:40:15;;;;;;;19.38;6.72;;;;;;;;;;4997138;28;20029;-46
2022/11/01 00:42:40;;;;;;;13.43;4.70;;;;;;;;;;4995937;28;20130;-48
2022/11/01 00:45:06;;;;;;;18.38;4.88;;;;;;;;;;4993372;28;20041;-49
2022/11/01 00:47:31;;;;;;;18.50;5.55;;;;;;;;;;4994474;28;20073;-50
2022/11/01 00:49:56;;;;;;;14.30;5.10;;;;;;;;;;4996738;28;20026;-48
2022/11/01 00:52:22;;;;;;;18.50;4.95;;;;;;;;;;4996236;28;20049;-47
2022/11/01 00:54:47;;;;;;;26.55;5.55;;;;;;;;;;4996185;28;20053;-46
2022/11/01 00:57:12;;;;;;;19.38;4.75;;;;;;;;;;4990308;28;20038;-47
2022/11/01 00:59:38;;;;;;;20.05;5.55;;;;;;;;;;4992487;28;20429;-46
2022/11/01 01:02:03;;;;;;;17.45;5.75;;;;;;;;;;4993993;28;20041;-50
2022/11/01 01:04:28;;;;;;;13.48;4.82;;;;;;;;;;4996002;28;20410;-48
2022/11/01 01:06:54;;;;;;;13.48;5.25;;;;;;;;;;4995904;28;20026;-48
2022/11/01 01:09:19;;;;;;;16.23;5.50;;;;;;;;;;4997501;28;20029;-48
2022/11/01 01:11:44;;;;;;;22.05;5.05;;;;;;;;;;4996871;28;20037;-51
2022/11/01 01:14:10;;;;;;;18.88;5.68;;;;;;;;;;4995695;28;20037;-48
2022/11/01 01:16:36;;;;;;;21.80;5.40;;;;;;;;;;4991249;28;20493;-48
2022/11/01 01:19:01;;;;;;;15.90;4.72;;;;;;;;;;4997633;28;20622;-48
2022/11/01 01:21:27;;;;;;;11.63;5.05;;;;;;;;;;4990340;28;20097;-52
2022/11/01 01:23:53;;;;;;;17.70;4.80;;;;;;;;;;4999392;28;20128;-49
2022/11/01 01:26:19;;;;;;;17.13;5.90;;;;;;;;;;4996830;28;20359;-49
2022/11/01 01:28:44;;;;;;;11.45;5.18;;;;;;;;;;4994111;28;20047;-53
2022/11/01 01:31:11;;;;;;;13.73;5.35;;;;;;;;;;4990552;28;20027;-48
2022/11/01 01:33:37;;;;;;;15.68;4.68;;;;;;;;;;4996241;28;20046;-51
2022/11/01 01:36:03;;;;;;;12.90;4.93;;;;;;;;;;4995640;28;20388;-51
2022/11/01 01:38:29;;;;;;;23.50;5.03;;;;;;;;;;4994382;28;20049;-48
2022/11/01 01:41:54;;;;;;;13.15;5.53;;;;;;;;;;4989643;28;20030;-50
2022/11/01 01:43:42;;;;;;;22.70;6.25;;;;;;;;;;4990104;28;20045;-48
2022/11/01 01:46:09;;;;;;;21.90;5.35;;;;;;;;;;4994161;28;20026;-54
2022/11/01 01:48:36;;;;;;;16.80;5.95;;;;;;;;;;4994265;28;20530;-50
2022/11/01 01:51:05;;;;;;;21.88;4.88;;;;;;;;;;4996452;28;20030;-51
2022/11/01 01:53:33;;;;;;;14.23;4.45;;;;;;;;;;4996782;28;20394;-50
2022/11/01 01:56:00;;;;;;;16.83;5.53;;;;;;;;;;4995009;28;20436;-51
2022/11/01 01:58:30;;;;;;;15.48;5.32;;;;;;;;;;4993768;28;20046;-50
2022/11/01 02:00:56;;;;;;;15.68;6.32;;;;;;;;;;4999208;28;20080;-50
2022/11/01 02:03:26;;;;;;;17.42;5.25;;;;;;;;;;4992346;28;20101;-51
2022/11/01 02:06:13;;;;;;;18.25;4.75;;;;;;;;;;4994035;28;20026;-50
2022/11/01 02:08:41;;;;;;;17.77;5.43;;;;;;;;;;4994231;28;20039;-49
2022/11/01 02:11:08;;;;;;;16.90;4.75;;;;;;;;;;4995845;28;20449;-49
2022/11/01 02:13:35;;;;;;;20.42;5.53;;;;;;;;;;4995783;28;20381;-52
2022/11/01 02:16:19;;;;;;;28.02;7.30;;;;;;;;;;4989865;28;20080;-47
2022/11/01 02:18:54;;;;;;;18.77;5.32;;;;;;;;;;4995169;28;20040;-51
2022/11/01 02:21:41;;;;;;;17.98;4.90;;;;;;;;;;4989401;28;20080;-50
2022/11/01 02:24:26;;;;;;;22.92;5.20;;;;;;;;;;4996050;28;20051;-49
2022/11/01 02:27:07;;;;;;;17.83;5.03;;;;;;;;;;4993202;28;20494;-47
2022/11/01 02:29:38;;;;;;;16.15;5.60;;;;;;;;;;4993304;28;20037;-50
2022/11/01 02:32:18;;;;;;;11.77;4.88;;;;;;;;;;4995028;28;20046;-52
2022/11/01 02:34:59;;;;;;;12.77;5.15;;;;;;;;;;4994097;28;20729;-52
2022/11/01 02:37:30;;;;;;;15.07;5.72;;;;;;;;;;4990802;28;20141;-53
2022/11/01 02:40:01;;;;;;;22.17;5.47;;;;;;;;;;4997235;28;20041;-52
2022/11/01 02:42:30;;;;;;;29.40;5.35;;;;;;;;;;4994307;28;20050;-53
2022/11/01 02:45:02;;;;;;;16.25;4.82;;;;;;;;;;4989349;28;20034;-53
2022/11/01 02:47:30;;;;;;;19.88;5.30;;;;;;;;;;4991343;28;20141;-53
2022/11/01 02:50:00;;;;;;;14.63;5.03;;;;;;;;;;4995338;28;20030;-50
2022/11/01 02:52:29;;;;;;;19.70;5.10;;;;;;;;;;4994042;28;20037;-52
2022/11/01 02:54:58;;;;;;;15.15;5.57;;;;;;;;;;4994585;28;20026;-49
2022/11/01 02:57:35;;;;;;;16.42;4.68;;;;;;;;;;4991573;28;20529;-48
2022/11/01 03:00:19;;;;;;;20.88;5.50;;;;;;;;;;4986438;28;20057;-52
2022/11/01 03:02:44;;;;;;;13.80;4.93;;;;;;;;;;4994816;28;20034;-52
2022/11/01 03:05:22;;;;;;;13.00;4.78;;;;;;;;;;4996664;28;20034;-52
2022/11/01 03:07:53;;;;;;;23.35;5.32;;;;;;;;;;4992733;28;20038;-52
2022/11/01 03:10:21;;;;;;;16.40;4.72;;;;;;;;;;4990545;28;20034;-48
2022/11/01 03:12:58;;;;;;;14.80;5.68;;;;;;;;;;4992673;28;20037;-49
2022/11/01 03:15:32;;;;;;;16.65;4.85;;;;;;;;;;4990887;28;20037;-50
2022/11/01 03:18:03;;;;;;;14.20;4.95;;;;;;;;;;4993420;28;20038;-49
2022/11/01 03:20:46;;;;;;;13.20;4.90;;;;;;;;;;4993064;28;20100;-48
2022/11/01 03:23:20;;;;;;;17.25;4.75;;;;;;;;;;4989948;28;20066;-48
2022/11/01 03:25:56;;;;;;;12.10;5.00;;;;;;;;;;4994947;28;20037;-49
2022/11/01 03:28:46;;;;;;;12.73;4.15;;;;;;;;;;4998935;28;20041;-47
2022/11/01 03:31:20;;;;;;;15.15;4.53;;;;;;;;;;4993844;28;20096;-50
2022/11/01 03:33:52;;;;;;;12.27;4.88;;;;;;;;;;4994383;28;20038;-49
2022/11/01 03:36:19;;;;;;;;;;;;;;;;;;4998030;28;20030;-47
2022/11/01 03:38:55;;;;;;;12.00;4.55;;;;;;;;;;4997530;28;20000;-50
2022/11/01 03:41:23;;;;;;;18.13;4.80;;;;;;;;;;4997158;28;20467;-47
2022/11/01 03:43:49;;;;;;;20.02;5.07;;;;;;;;;;4997044;28;20125;-52
2022/11/01 03:46:15;;;;;;;13.60;4.55;;;;;;;;;;4996491;28;20105;-53
2022/11/01 03:48:40;;;;;;;10.82;4.03;;;;;;;;;;4997687;28;20073;-49
2022/11/01 03:51:06;;;;;;;6.93;4.50;;;;;;;;;;4996379;28;20495;-52
2022/11/01 03:53:31;;;;;;;15.95;4.45;;;;;;;;;;4998553;28;20541;-52
2022/11/01 03:55:57;;;;;;;16.17;4.75;;;;;;;;;;4994114;28;20566;-47
2022/11/01 03:58:22;;;;;;;14.27;4.63;;;;;;;;;;4998280;28;20104;-51
2022/11/01 04:00:49;;;;;;;13.32;5.55;;;;;;;;;;4994239;28;20027;-51
2022/11/01 04:03:14;;;;;;;23.83;5.70;;;;;;;;;;4995219;28;20048;-51
2022/11/01 04:05:41;;;;;;;17.08;5.05;;;;;;;;;;5001058;28;20035;-47
2022/11/01 04:08:08;;;;;;;15.50;5.10;;;;;;;;;;4991111;28;20499;-50
2022/11/01 04:10:34;;;;;;;21.35;4.97;;;;;;;;;;4996540;28;20401;-47
2022/11/01 04:12:59;;;;;;;23.83;4.38;;;;;;;;;;4994808;28;20476;-48
2022/11/01 04:21:09;;;;;;;16.23;4.72;;;;;;;;;;4995113;28;20132;-48
2022/11/01 04:23:35;;;;;;;15.35;5.05;;;;;;;;;;4998021;28;20395;-49
2022/11/01 04:26:01;;;;;;;14.48;4.85;;;;;;;;;;4998119;28;20042;-52
2022/11/01 04:28:26;;;;;;;8.85;4.25;;;;;;;;;;4992736;28;20053;-50
2022/11/01 04:30:52;;;;;;;11.63;4.20;;;;;;;;;;4997553;28;20034;-48
2022/11/01 04:33:17;;;;;;;25.90;5.80;;;;;;;;;;4997927;28;20137;-49
2022/11/01 04:35:43;;;;;;;12.95;4.35;;;;;;;;;;4992610;28;20019;-46
2022/11/01 04:38:10;;;;;;;14.30;5.60;;;;;;;;;;4996154;28;20043;-48
2022/11/01 04:40:36;;;;;;;17.35;4.45;;;;;;;;;;4995920;28;20034;-48
2022/11/01 04:43:02;;;;;;;10.82;5.10;;;;;;;;;;4999352;28;20030;-49
2022/11/01 04:45:27;;;;;;;14.77;5.00;;;;;;;;;;4996110;28;20065;-46
2022/11/01 04:48:05;;;;;;;15.43;4.72;;;;;;;;;;4994654;28;20408;-48
2022/11/01 04:50:31;;;;;;;17.42;5.78;;;;;;;;;;4995612;28;20419;-47
2022/11/01 04:52:58;;;;;;;28.27;6.22;;;;;;;;;;4996917;28;20046;-50
2022/11/01 04:55:24;;;;;;;17.10;6.28;;;;;;;;;;4998626;28;20420;-46
2022/11/01 04:57:49;;;;;;;19.13;5.72;;;;;;;;;;4993535;28;20088;-47
2022/11/01 05:00:15;;;;;;;24.60;7.18;;;;;;;;;;4996074;28;20154;-46
2022/11/01 05:02:40;;;;;;;27.05;8.02;;;;;;;;;;4996216;28;20030;-44
2022/11/01 05:05:07;;;;;;;33.85;8.50;;;;;;;;;;4998411;28;20387;-48
2022/11/01 05:07:33;;;;;;;27.98;7.35;;;;;;;;;;4991167;28;20042;-45
2022/11/01 05:09:59;;;;;;;30.60;8.85;;;;;;;;;;4989234;28;20033;-45
2022/11/01 05:12:24;;;;;;;25.33;9.45;;;;;;;;;;4993767;28;20034;-45
2022/11/01 05:14:50;;;;;;;43.17;10.55;;;;;;;;;;4994739;28;20546;-45
2022/11/01 05:17:15;;;;;;;43.35;12.70;;;;;;;;;;4994347;28;20502;-45
2022/11/01 05:19:40;;;;;;;2.20;2.08;;;;;;;;;;4996887;28;20109;-46
2022/11/01 05:22:06;;;;;;;0.40;0.25;;;;;;;;;;4994814;28;20061;-48
2022/11/01 05:24:31;;;;;;;11.80;2.00;;;;;;;;;;4997998;28;20471;-46
2022/11/01 05:26:58;;;;;;;6.20;1.40;;;;;;;;;;4994055;28;20077;-50
2022/11/01 05:29:23;;;;;;;5.72;1.52;;;;;;;;;;4993200;28;20026;-44
2022/11/01 05:31:49;;;;;;;3.85;1.98;;;;;;;;;;4994573;28;20097;-44
2022/11/01 05:34:14;;;;;;;0.90;0.90;;;;;;;;;;4996623;28;20109;-45
2022/11/01 05:36:39;;;;;;;6.60;1.63;;;;;;;;;;4995580;28;20080;-48
2022/11/01 05:39:05;;;;;;;8.38;2.05;;;;;;;;;;4992543;28;20387;-45
2022/11/01 05:41:30;;;;;;;10.32;2.17;;;;;;;;;;4997133;28;20080;-45
2022/11/01 05:43:56;;;;;;;0.35;0.35;;;;;;;;;;4996736;28;20077;-48
2022/11/01 05:46:22;;;;;;;1.48;1.02;;;;;;;;;;4990959;28;20030;-46
2022/11/01 05:48:47;;;;;;;0.55;0.52;;;;;;;;;;4990041;28;20070;-44
2022/11/01 05:51:13;;;;;;;4.03;1.15;;;;;;;;;;4997301;28;20391;-44
2022/11/01 05:53:38;;;;;;;5.50;1.58;;;;;;;;;;4992351;28;20033;-45
2022/11/01 05:56:04;;;;;;;1.05;1.05;;;;;;;;;;4998534;28;20030;-44
2022/11/01 05:58:29;;;;;;;6.82;3.65;;;;;;;;;;4991965;28;20046;-46
2022/11/01 06:01:04;;;;;;;0.65;0.65;;;;;;;;;;4997002;28;20026;-45
2022/11/01 06:03:30;;;;;;;1.60;1.40;;;;;;;;;;4997103;28;20030;-46
2022/11/01 06:05:55;;;;;;;0.22;0.22;;;;;;;;;;4992115;28;20046;-45
2022/11/01 06:08:20;;;;;;;1.45;1.35;;;;;;;;;;4990978;28;20061;-45
2022/11/01 06:10:46;;;;;;;0.30;0.30;;;;;;;;;;4991927;28;20033;-46
2022/11/01 06:13:11;;;;;;;2.90;1.50;;;;;;;;;;4990863;28;20115;-46
2022/11/01 06:15:36;;;;;;;1.25;1.10;;;;;;;;;;4997426;28;20038;-45
2022/11/01 06:18:02;;;;;;;3.85;0.75;;;;;;;;;;4997649;28;20073;-45
2022/11/01 06:20:29;;;;;;;1.55;1.10;;;;;;;;;;4990946;28;20045;-47
2022/11/01 06:22:55;;;;;;;7.78;1.35;;;;;;;;;;4996523;28;20093;-48
2022/11/01 06:25:21;;;;;;;4.85;1.90;;;;;;;;;;4996088;28;20030;-46
2022/11/01 06:27:47;;;;;;;4.40;1.58;;;;;;;;;;4996787;28;20577;-48
2022/11/01 06:30:12;;;;;;;1.10;1.08;;;;;;;;;;4989312;28;20038;-48
2022/11/01 06:32:38;;;;;;;3.88;1.40;;;;;;;;;;4995602;28;20057;-46
2022/11/01 06:35:03;;;;;;;0.10;0.10;;;;;;;;;;4996162;28;20542;-46
2022/11/01 06:37:29;;;;;;;0.20;0.20;;;;;;;;;;4990853;28;20042;-48
2022/11/01 06:39:55;;;;;;;0.00;0.00;;;;;;;;;;4987403;28;20113;-46
2022/11/01 06:42:20;;;;;;;0.00;0.00;;;;;;;;;;4994883;28;20510;-47
2022/11/01 06:44:46;;;;;;;0.10;0.10;;;;;;;;;;4995401;28;20037;-45
2022/11/01 06:47:11;;;;;;;0.10;0.10;;;;;;;;;;4992658;28;20101;-49
2022/11/01 06:49:37;;;;;;;0.65;0.30;;;;;;;;;;4992215;28;20092;-45
2022/11/01 06:52:03;;;;;;;0.10;0.10;;;;;;;;;;4992604;28;20048;-46
2022/11/01 06:54:29;;;;;;;0.35;0.35;;;;;;;;;;4998924;28;20026;-47
2022/11/01 06:56:56;;;;;;;0.10;0.10;;;;;;;;;;4991333;28;20104;-46
2022/11/01 06:59:21;;;;;;;0.00;0.00;;;;;;;;;;4990988;28;20025;-45
2022/11/01 07:01:47;;;;;;;0.90;0.43;;;;;;;;;;4998244;28;20470;-48
2022/11/01 07:04:12;;;;;;;0.00;0.00;;;;;;;;;;5000440;28;20038;-48
2022/11/01 07:06:37;;;;;;;0.17;0.17;;;;;;;;;;4995581;28;20029;-46
2022/11/01 07:09:04;;;;;;;0.05;0.05;;;;;;;;;;4996342;28;20126;-46
2022/11/01 07:11:29;;;;;;;0.10;0.10;;;;;;;;;;4997372;28;20045;-48
2022/11/01 07:13:55;;;;;;;0.20;0.10;;;;;;;;;;4998284;28;20034;-46
2022/11/01 07:16:20;;;;;;;0.00;0.00;;;;;;;;;;4995881;28;20116;-45
2022/11/01 07:18:46;;;;;;;0.00;0.00;;;;;;;;;;4990610;28;20049;-47
2022/11/01 07:21:11;;;;;;;0.52;0.03;;;;;;;;;;5000483;28;20053;-47
2022/11/01 07:23:36;;;;;;;0.38;0.17;;;;;;;;;;4995343;28;20070;-46
2022/11/01 07:26:02;;;;;;;0.00;0.00;;;;;;;;;;4995143;28;20108;-48
2022/11/01 07:28:29;;;;;;;0.08;0.08;;;;;;;;;;5000000;28;20046;-46
2022/11/01 07:30:55;;;;;;;0.00;0.00;;;;;;;;;;4999347;28;20030;-46
2022/11/01 07:33:21;;;;;;;1.38;0.22;;;;;;;;;;4999233;28;20531;-47
2022/11/01 07:35:47;;;;;;;0.00;0.00;;;;;;;;;;4994735;28;20045;-52
2022/11/01 07:38:13;;;;;;;0.00;0.00;;;;;;;;;;4997154;28;20593;-47
2022/11/01 07:40:39;;;;;;;0.15;0.15;;;;;;;;;;4998636;28;20523;-47
2022/11/01 07:43:05;;;;;;;0.00;0.00;;;;;;;;;;4993736;28;20039;-44
2022/11/01 07:45:32;;;;;;;0.03;0.03;;;;;;;;;;5003301;28;20364;-47
2022/11/01 07:48:09;;;;;;;0.22;0.10;;;;;;;;;;4995297;28;20038;-45
2022/11/01 07:50:35;;;;;;;0.00;0.00;;;;;;;;;;4997472;28;20068;-47
2022/11/01 07:53:13;;;;;;;0.00;0.00;;;;;;;;;;5000491;28;20038;-46
2022/11/01 07:55:39;;;;;;;0.10;0.10;;;;;;;;;;4997591;28;20044;-46
2022/11/01 07:58:05;;;;;;;0.75;0.75;;;;;;;;;;4994537;28;20058;-47
2022/11/01 08:00:31;;;;;;;0.00;0.00;;;;;;;;;;4997772;28;20031;-48
2022/11/01 08:03:07;;;;;;;0.00;0.00;;;;;;;;;;4997554;28;20048;-47
2022/11/01 08:05:33;;;;;;;1.42;0.82;;;;;;;;;;4995128;28;20018;-46
2022/11/01 08:07:58;;;;;;;0.38;0.38;;;;;;;;;;4995483;28;20368;-45
2022/11/01 08:10:24;;;;;;;0.00;0.00;;;;;;;;;;4996554;28;20029;-46
2022/11/01 08:12:49;;;;;;;0.00;0.00;;;;;;;;;;4998548;28;20041;-46
2022/11/01 08:15:15;;;;;;;0.00;0.00;;;;;;;;;;4998173;28;20026;-47
2022/11/01 08:17:40;;;;;;;0.00;0.00;;;;;;;;;;4990183;28;20400;-48
2022/11/01 08:20:06;;;;;;;0.00;0.00;;;;;;;;;;4996369;28;20133;-48
2022/11/01 08:22:32;;;;;;;0.00;0.00;;;;;;;;;;4991621;28;20042;-49
2022/11/01 08:24:58;;;;;;;0.00;0.00;;;;;;;;;;4989100;28;20037;-47
2022/11/01 08:27:23;;;;;;;0.43;0.43;;;;;;;;;;4988798;28;20047;-45
2022/11/01 08:29:49;;;;;;;0.03;0.03;;;;;;;;;;4999634;28;20075;-47
2022/11/01 08:32:19;;;;;;;0.00;0.00;;;;;;;;;;4993098;28;20034;-52
2022/11/01 08:34:44;;;;;;;0.00;0.00;;;;;;;;;;4993398;28;20717;-48
2022/11/01 08:37:09;;;;;;;0.20;0.20;;;;;;;;;;4988428;28;20034;-50
2022/11/01 08:39:35;;;;;;;0.00;0.00;;;;;;;;;;4997883;28;20030;-46
2022/11/01 08:42:00;;;;;;;0.00;0.00;;;;;;;;;;4996834;28;20450;-46
2022/11/01 08:44:25;;;;;;;0.00;0.00;;;;;;;;;;4996094;28;20457;-47
2022/11/01 08:46:53;;;;;;;0.30;0.30;;;;;;;;;;4993472;28;20030;-46
2022/11/01 08:49:18;;;;;;;0.03;0.03;;;;;;;;;;4996603;28;20117;-48
2022/11/01 08:51:43;;;;;;;0.00;0.00;;;;;;;;;;4994817;28;20041;-46
2022/11/01 08:54:09;;;;;;;0.00;0.00;;;;;;;;;;4998157;28;20045;-47
2022/11/01 08:56:34;;;;;;;0.00;0.00;;;;;;;;;;4996246;28;20027;-46
2022/11/01 08:59:00;;;;;;;0.32;0.32;;;;;;;;;;4996811;28;20037;-46
2022/11/01 09:01:25;;;;;;;0.93;0.43;;;;;;;;;;4991846;28;20034;-45
2022/11/01 09:03:56;;;;;;;1.00;0.68;;;;;;;;;;4989519;28;20129;-46
2022/11/01 09:06:22;;;;;;;1.55;0.70;;;;;;;;;;4995695;28;20027;-49
2022/11/01 09:08:47;;;;;;;3.67;0.70;;;;;;;;;;4990286;28;20046;-45
2022/11/01 09:11:13;;;;;;;2.25;0.77;;;;;;;;;;4994601;28;20034;-49
2022/11/01 09:13:38;;;;;;;1.75;0.85;;;;;;;;;;4996480;28;20030;-49
2022/11/01 09:16:05;;;;;;;0.75;0.70;;;;;;;;;;4994514;28;20137;-48
2022/11/01 09:18:31;;;;;;;2.25;1.60;;;;;;;;;;4986658;28;20045;-48
2022/11/01 09:20:56;;;;;;;1.23;0.82;;;;;;;;;;4997667;28;20721;-48
2022/11/01 09:23:21;;;;;;;2.80;1.20;;;;;;;;;;4992410;28;20038;-47
2022/11/01 09:25:47;;;;;;;1.85;1.20;;;;;;;;;;4990727;28;20508;-51
2022/11/01 09:28:12;;;;;;;1.80;1.10;;;;;;;;;;4997106;28;20054;-47
2022/11/01 09:30:38;;;;;;;4.13;1.30;;;;;;;;;;4997805;28;20069;-49
2022/11/01 09:33:04;;;;;;;3.17;1.55;;;;;;;;;;4995821;28;20037;-49
2022/11/01 09:35:30;;;;;;;1.45;1.30;;;;;;;;;;4992777;28;20034;-49
2022/11/01 09:37:59;;;;;;;0.80;0.80;;;;;;;;;;4990185;28;20105;-46
2022/11/01 09:40:36;;;;;;;1.52;1.27;;;;;;;;;;4990887;28;20105;-45
2022/11/01 09:43:05;;;;;;;1.10;0.90;;;;;;;;;;4993383;28;20066;-49
2022/11/01 09:45:32;;;;;;;1.27;1.13;;;;;;;;;;4996200;28;20028;-49
2022/11/01 09:48:00;;;;;;;0.75;0.75;;;;;;;;;;4998599;28;20479;-51
2022/11/01 09:50:29;;;;;;;3.03;0.95;;;;;;;;;;4997702;28;20038;-47
2022/11/01 09:52:56;;;;;;;1.60;0.75;;;;;;;;;;4995562;28;20034;-47
2022/11/01 09:56:00;;;;;;;2.50;0.80;;;;;;;;;;4994773;28;20081;-47
2022/11/01 09:58:41;;;;;;;0.70;0.70;;;;;;;;;;4992299;28;20684;-49
2022/11/01 10:01:48;;;;;;;0.65;0.60;;;;;;;;;;4991860;28;20042;-51
2022/11/01 10:04:29;;;;;;;6.68;0.80;;;;;;;;;;4935808;29;20043;-50
2022/11/01 10:07:24;;;;;;;1.57;0.90;;;;;;;;;;4933465;29;20067;-48
2022/11/01 10:09:50;;;;;;;2.05;0.90;;;;;;;;;;4935264;29;20038;-49
2022/11/01 10:12:23;;;;;;;1.85;0.70;;;;;;;;;;4937067;29;20459;-50
2022/11/01 10:15:05;;;;;;;3.47;1.10;;;;;;;;;;4936147;29;20451;-48
2022/11/01 10:17:33;;;;;;;1.60;1.20;;;;;;;;;;4934623;29;20040;-49
2022/11/01 10:19:59;;;;;;;4.45;2.80;;;;;;;;;;4929872;29;20121;-51
2022/11/01 10:22:30;;;;;;;4.03;1.90;;;;;;;;;;4935604;29;20130;-48
2022/11/01 10:25:05;;;;;;;4.80;4.07;;;;;;;;;;4933334;29;20537;-46
2022/11/01 10:27:52;;;;;;;1.63;1.52;;;;;;;;;;4932642;29;20056;-49
2022/11/01 10:30:18;;;;;;;0.97;0.93;;;;;;;;;;4930261;29;20038;-47
2022/11/01 10:33:00;;;;;;;3.72;1.02;;;;;;;;;;4932231;29;20068;-53
2022/11/01 10:35:32;;;;;;;0.70;0.70;;;;;;;;;;4939173;29;20046;-48
2022/11/01 10:38:07;;;;;;;;;;;;;;;;;;4936478;29;20102;-50
2022/11/01 10:40:37;;;;;;;0.95;0.90;;;;;;;;;;4981161;28;19922;-48
2022/11/01 10:43:10;;;;;;;0.68;0.60;;;;;;;;;;4997635;28;20034;-50
2022/11/01 10:45:36;;;;;;;0.60;0.60;;;;;;;;;;4996746;28;20433;-47
2022/11/01 10:48:02;;;;;;;1.10;0.60;;;;;;;;;;4995683;28;20037;-48
2022/11/01 10:50:29;;;;;;;1.23;0.80;;;;;;;;;;5003155;28;20171;-49
2022/11/01 10:53:00;;;;;;;4.60;0.98;;;;;;;;;;4997431;28;20125;-50
2022/11/01 10:55:44;;;;;;;4.40;0.70;;;;;;;;;;4990514;28;20120;-52
2022/11/01 10:58:18;;;;;;;5.65;0.90;;;;;;;;;;4997673;28;20116;-48
2022/11/01 11:00:44;;;;;;;0.85;0.85;;;;;;;;;;4998857;28;20037;-47
2022/11/01 11:03:26;;;;;;;0.70;0.70;;;;;;;;;;4997922;28;20061;-49
2022/11/01 11:05:54;;;;;;;2.00;1.23;;;;;;;;;;4995154;28;20018;-52
2022/11/01 11:08:22;;;;;;;3.15;0.82;;;;;;;;;;5001712;28;20105;-47
2022/11/01 11:10:48;;;;;;;0.75;0.75;;;;;;;;;;4998528;28;20033;-50
2022/11/01 11:13:18;;;;;;;2.33;1.05;;;;;;;;;;4995411;28;20498;-48
2022/11/01 11:15:51;;;;;;;2.28;1.27;;;;;;;;;;4997223;28;20505;-47
2022/11/01 11:18:26;;;;;;;1.27;1.15;;;;;;;;;;4996873;28;20043;-52
2022/11/01 11:20:56;;;;;;;0.93;0.80;;;;;;;;;;4993480;28;20442;-49
2022/11/01 11:23:22;;;;;;;1.10;0.75;;;;;;;;;;5000750;28;20034;-50
2022/11/01 11:25:49;;;;;;;1.48;1.38;;;;;;;;;;4999734;28;20064;-48
2022/11/01 11:28:22;;;;;;;1.20;1.08;;;;;;;;;;4997361;28;20046;-49
2022/11/01 11:30:47;;;;;;;1.60;1.50;;;;;;;;;;4992630;28;20034;-49
2022/11/01 11:33:16;;;;;;;1.90;1.10;;;;;;;;;;4999463;28;20069;-50
2022/11/01 11:35:54;;;;;;;5.97;1.10;;;;;;;;;;4996448;28;20033;-51
2022/11/01 11:38:39;;;;;;;2.35;0.77;;;;;;;;;;4993250;28;20041;-52
2022/11/01 11:41:05;;;;;;;0.80;0.80;;;;;;;;;;4996027;28;20109;-51
2022/11/01 11:43:32;;;;;;;4.07;1.25;;;;;;;;;;4995414;28;20682;-48
2022/11/01 11:46:23;;;;;;;1.95;0.90;;;;;;;;;;4998105;28;20080;-46
2022/11/01 11:48:57;;;;;;;1.90;0.75;;;;;;;;;;4998975;28;20035;-47
2022/11/01 11:51:27;;;;;;;1.20;0.80;;;;;;;;;;4997861;28;20429;-46
2022/11/01 11:54:17;;;;;;;1.00;0.68;;;;;;;;;;4994722;28;20376;-51
2022/11/01 11:56:44;;;;;;;0.70;0.63;;;;;;;;;;4996468;28;20112;-46
2022/11/01 11:59:28;;;;;;;1.15;0.75;;;;;;;;;;4997307;28;20069;-46
2022/11/01 12:01:59;;;;;;;1.45;1.00;;;;;;;;;;4997737;28;20072;-46
2022/11/01 12:04:29;;;;;;;2.75;0.63;;;;;;;;;;4996008;28;20031;-47
2022/11/01 12:06:54;;;;;;;1.05;0.80;;;;;;;;;;4996940;28;20038;-45
2022/11/01 12:09:45;;;;;;;2.92;0.80;;;;;;;;;;4994303;28;20022;-47
2022/11/01 12:12:23;;;;;;;0.80;0.80;;;;;;;;;;4999422;28;20096;-49
2022/11/01 12:14:49;;;;;;;9.88;1.02;;;;;;;;;;4998258;28;20026;-46
2022/11/01 12:17:44;;;;;;;0.73;0.52;;;;;;;;;;4995728;28;20077;-46
2022/11/01 12:20:21;;;;;;;2.55;0.93;;;;;;;;;;4997360;28;20039;-48
2022/11/01 12:22:52;;;;;;;4.13;1.10;;;;;;;;;;4991332;28;20050;-51
2022/11/01 12:25:21;;;;;;;3.03;0.88;;;;;;;;;;4995113;28;20022;-49
2022/11/01 12:28:12;;;;;;;1.95;0.80;;;;;;;;;;4996281;28;20040;-46
2022/11/01 12:30:40;;;;;;;1.10;1.00;;;;;;;;;;4999938;28;20085;-46
2022/11/01 12:33:22;;;;;;;3.00;0.90;;;;;;;;;;4995982;28;20418;-48
2022/11/01 12:35:48;;;;;;;8.18;0.90;;;;;;;;;;4997170;28;20029;-47
2022/11/01 12:38:51;;;;;;;1.80;0.90;;;;;;;;;;4998964;28;20521;-45
2022/11/01 12:41:25;;;;;;;1.00;1.00;;;;;;;;;;4998314;28;20071;-50
2022/11/01 12:44:20;;;;;;;0.88;0.88;;;;;;;;;;4998692;28;20033;-50
2022/11/01 12:46:55;;;;;;;1.60;0.80;;;;;;;;;;4994194;28;20030;-46
2022/11/01 12:49:39;;;;;;;0.93;0.85;;;;;;;;;;4992368;28;20030;-46
2022/11/01 12:52:40;;;;;;;7.25;1.13;;;;;;;;;;4994096;28;20085;-46
2022/11/01 12:55:14;;;;;;;0.80;0.80;;;;;;;;;;4936760;29;20052;-46
2022/11/01 12:57:39;;;;;;;2.42;0.90;;;;;;;;;;4939497;28;20044;-46
2022/11/01 13:00:06;;;;;;;2.05;0.95;;;;;;;;;;4939018;29;20046;-48
2022/11/01 13:03:03;;;;;;;2.22;0.85;;;;;;;;;;4933945;29;20055;-49
2022/11/01 13:06:00;;;;;;;0.98;0.80;;;;;;;;;;4931703;29;20046;-49
2022/11/01 13:08:40;;;;;;;4.13;0.90;;;;;;;;;;4937880;29;20528;-46
2022/11/01 13:11:13;;;;;;;4.43;1.58;;;;;;;;;;4937154;29;20066;-46
2022/11/01 13:14:13;;;;;;;1.33;1.05;;;;;;;;;;4933045;29;20044;-46
2022/11/01 13:16:44;;;;;;;1.85;0.95;;;;;;;;;;4886189;29;20033;-46
2022/11/01 13:19:27;;;;;;;0.90;0.90;;;;;;;;;;4881477;29;20044;-45
2022/11/01 13:21:57;;;;;;;2.85;0.80;;;;;;;;;;4879486;29;20431;-45
2022/11/01 13:24:30;;;;;;;0.93;0.93;;;;;;;;;;4878226;29;20128;-46
2022/11/01 13:27:14;;;;;;;0.95;0.90;;;;;;;;;;4879552;29;20049;-44
2022/11/01 13:29:53;;;;;;;0.75;0.75;;;;;;;;;;4881345;29;20151;-49
2022/11/01 13:32:24;;;;;;;1.02;0.82;;;;;;;;;;4930152;28;20399;-48
2022/11/01 13:35:25;;;;;;;1.88;1.00;;;;;;;;;;4950196;28;20043;-46
2022/11/01 13:37:55;;;;;;;1.20;0.80;;;;;;;;;;4949638;28;20139;-45
2022/11/01 13:40:30;;;;;;;0.77;0.60;;;;;;;;;;4952263;28;20074;-45
2022/11/01 13:43:01;;;;;;;1.42;0.90;;;;;;;;;;4952199;28;20448;-48
2022/11/01 13:45:50;;;;;;;1.17;1.08;;;;;;;;;;4957043;28;20053;-48
2022/11/01 13:48:21;;;;;;;1.05;0.80;;;;;;;;;;4957365;28;20065;-45
2022/11/01 13:51:05;;;;;;;4.07;0.80;;;;;;;;;;4954423;28;20038;-51
2022/11/01 13:53:35;;;;;;;2.13;0.90;;;;;;;;;;4997191;28;20710;-45
2022/11/01 13:56:07;;;;;;;3.50;0.88;;;;;;;;;;4997487;28;20563;-45
2022/11/01 13:58:33;;;;;;;3.83;1.00;;;;;;;;;;4993586;28;20034;-46
2022/11/01 14:01:27;;;;;;;1.52;1.05;;;;;;;;;;4996235;28;20048;-48
2022/11/01 14:04:34;;;;;;;2.80;0.90;;;;;;;;;;4989582;28;20038;-45
2022/11/01 14:07:08;;;;;;;2.58;0.68;;;;;;;;;;4991954;28;20384;-47
2022/11/01 14:09:45;;;;;;;0.90;0.90;;;;;;;;;;4996385;28;20491;-46
2022/11/01 14:12:28;;;;;;;0.75;0.68;;;;;;;;;;4996756;28;20581;-49
2022/11/01 14:14:53;;;;;;;2.97;1.67;;;;;;;;;;4996872;28;20124;-44
2022/11/01 14:17:18;;;;;;;1.27;1.00;;;;;;;;;;4992233;28;20132;-47
2022/11/01 14:19:46;;;;;;;3.58;0.90;;;;;;;;;;4994936;28;20034;-44
2022/11/01 14:22:32;;;;;;;1.38;1.10;;;;;;;;;;4992277;28;20054;-50
2022/11/01 14:25:17;;;;;;;3.05;1.23;;;;;;;;;;4994201;28;20069;-45
2022/11/01 14:27:48;;;;;;;1.13;1.02;;;;;;;;;;4986337;28;20042;-45
2022/11/01 14:30:20;;;;;;;1.15;1.15;;;;;;;;;;4995538;28;20050;-45
2022/11/01 14:33:03;;;;;;;1.42;1.30;;;;;;;;;;4994016;28;20041;-47
2022/11/01 14:35:38;;;;;;;1.63;1.23;;;;;;;;;;4992061;28;20042;-45
2022/11/01 14:38:10;;;;;;;2.10;1.70;;;;;;;;;;4994357;28;20042;-46
2022/11/01 14:40:45;;;;;;;1.23;1.15;;;;;;;;;;4996128;28;20022;-48
2022/11/01 14:43:19;;;;;;;3.38;1.02;;;;;;;;;;4992023;28;20515;-45
2022/11/01 14:45:47;;;;;;;1.30;1.20;;;;;;;;;;4991049;28;20068;-45
2022/11/01 14:48:19;;;;;;;2.30;1.27;;;;;;;;;;4993594;28;20778;-48
2022/11/01 14:50:58;;;;;;;2.35;1.25;;;;;;;;;;4992430;28;20499;-45
2022/11/01 14:53:36;;;;;;;1.52;1.00;;;;;;;;;;4993115;28;20430;-48
2022/11/01 14:56:29;;;;;;;1.20;1.00;;;;;;;;;;4987848;28;20026;-48
2022/11/01 14:59:30;;;;;;;3.15;1.08;;;;;;;;;;4994218;28;20038;-47
2022/11/01 15:02:05;;;;;;;4.07;0.90;;;;;;;;;;4992073;28;20057;-45
2022/11/01 15:04:43;;;;;;;1.92;1.27;;;;;;;;;;4992417;28;20456;-48